sensor_id;sensor_type;location;lat;lon;timestamp;temperature;humidity
61412;DHT22;47278;49.732;7.690;2022-11-14T00:01:18;1.80;99.90
61412;DHT22;47278;49.732;7.690;2022-11-14T00:03:44;1.90;99.90
61412;DHT22;47278;49.732;7.690;2022-11-14T00:06:10;1.90;99.90
61412;DHT22;47278;49.732;7.690;2022-11-14T00:08:36;2.00;99.90
61412;DHT22;47278;49.732;7.690;2022-11-14T00:11:02;1.90;99.90
61412;DHT22;47278;49.732;7.690;2022-11-14T00:13:27;2.00;99.90
61412;DHT22;47278;49.732;7.690;2022-11-14T00:15:53;2.00;99.90
61412;DHT22;47278;49.732;7.690;2022-11-14T00:18:19;2.00;99.90
61412;DHT22;47278;49.732;7.690;2022-11-14T00:20:47;2.00;99.90
61412;DHT22;47278;49.732;7.690;2022-11-14T00:23:13;2.10;99.90
61412;DHT22;47278;49.732;7.690;2022-11-14T00:25:38;2.10;99.90
61412;DHT22;47278;49.732;7.690;2022-11-14T00:28:04;2.10;99.90
61412;DHT22;47278;49.732;7.690;2022-11-14T00:30:29;2.10;99.90
61412;DHT22;47278;49.732;7.690;2022-11-14T00:32:55;2.10;99.90
61412;DHT22;47278;49.732;7.690;2022-11-14T00:35:20;2.00;99.90
61412;DHT22;47278;49.732;7.690;2022-11-14T00:37:46;2.10;99.90
61412;DHT22;47278;49.732;7.690;2022-11-14T00:40:12;2.10;99.90
61412;DHT22;47278;49.732;7.690;2022-11-14T00:42:39;2.10;99.90
61412;DHT22;47278;49.732;7.690;2022-11-14T00:45:04;2.10;99.90
61412;DHT22;47278;49.732;7.690;2022-11-14T00:47:30;2.10;99.90
61412;DHT22;47278;49.732;7.690;2022-11-14T00:49:55;2.10;99.90
61412;DHT22;47278;49.732;7.690;2022-11-14T00:52:21;2.10;99.90
61412;DHT22;47278;49.732;7.690;2022-11-14T00:54:46;2.00;99.90
61412;DHT22;47278;49.732;7.690;2022-11-14T00:57:12;2.00;99.90
61412;DHT22;47278;49.732;7.690;2022-11-14T00:59:38;2.10;99.90
61412;DHT22;47278;49.732;7.690;2022-11-14T01:02:03;2.10;99.90
61412;DHT22;47278;49.732;7.690;2022-11-14T01:04:29;2.10;99.90
61412;DHT22;47278;49.732;7.690;2022-11-14T01:06:54;2.10;99.90
61412;DHT22;47278;49.732;7.690;2022-11-14T01:09:20;2.10;99.90
61412;DHT22;47278;49.732;7.690;2022-11-14T01:11:45;2.10;99.90
61412;DHT22;47278;49.732;7.690;2022-11-14T01:14:11;2.10;99.90
61412;DHT22;47278;49.732;7.690;2022-11-14T01:16:36;2.10;99.90
61412;DHT22;47278;49.732;7.690;2022-11-14T01:19:02;2.10;99.90
61412;DHT22;47278;49.732;7.690;2022-11-14T01:21:28;2.20;99.90
61412;DHT22;47278;49.732;7.690;2022-11-14T01:23:53;2.20;99.90
61412;DHT22;47278;49.732;7.690;2022-11-14T01:26:19;2.30;99.90
61412;DHT22;47278;49.732;7.690;2022-11-14T01:28:44;2.20;99.90
61412;DHT22;47278;49.732;7.690;2022-11-14T01:31:21;2.20;99.90
61412;DHT22;47278;49.732;7.690;2022-11-14T01:33:50;2.10;99.90
61412;DHT22;47278;49.732;7.690;2022-11-14T01:36:16;2.20;99.90
61412;DHT22;47278;49.732;7.690;2022-11-14T01:38:42;2.20;99.90
61412;DHT22;47278;49.732;7.690;2022-11-14T01:41:08;2.20;99.90
61412;DHT22;47278;49.732;7.690;2022-11-14T01:43:34;1.90;99.90
61412;DHT22;47278;49.732;7.690;2022-11-14T01:46:04;1.90;99.90
61412;DHT22;47278;49.732;7.690;2022-11-14T01:51:21;2.00;99.90
61412;DHT22;47278;49.732;7.690;2022-11-14T01:53:49;2.00;99.90
61412;DHT22;47278;49.732;7.690;2022-11-14T01:56:16;2.00;99.90
61412;DHT22;47278;49.732;7.690;2022-11-14T01:58:44;2.10;99.90
61412;DHT22;47278;49.732;7.690;2022-11-14T02:01:10;2.00;99.90
61412;DHT22;47278;49.732;7.690;2022-11-14T02:03:37;2.00;99.90
61412;DHT22;47278;49.732;7.690;2022-11-14T02:06:03;1.90;99.90
61412;DHT22;47278;49.732;7.690;2022-11-14T02:08:30;2.00;99.90
61412;DHT22;47278;49.732;7.690;2022-11-14T02:10:57;2.00;99.90
61412;DHT22;47278;49.732;7.690;2022-11-14T02:13:22;2.00;99.90
61412;DHT22;47278;49.732;7.690;2022-11-14T02:15:48;2.10;99.90
61412;DHT22;47278;49.732;7.690;2022-11-14T02:18:14;2.10;99.90
61412;DHT22;47278;49.732;7.690;2022-11-14T02:20:39;2.10;99.90
61412;DHT22;47278;49.732;7.690;2022-11-14T02:23:08;2.10;99.90
61412;DHT22;47278;49.732;7.690;2022-11-14T02:25:34;2.10;99.90
61412;DHT22;47278;49.732;7.690;2022-11-14T02:27:59;2.20;99.90
61412;DHT22;47278;49.732;7.690;2022-11-14T02:30:25;2.20;99.90
61412;DHT22;47278;49.732;7.690;2022-11-14T02:32:50;2.30;99.90
61412;DHT22;47278;49.732;7.690;2022-11-14T02:35:16;2.40;99.90
61412;DHT22;47278;49.732;7.690;2022-11-14T02:37:42;2.40;99.90
61412;DHT22;47278;49.732;7.690;2022-11-14T02:40:07;2.40;99.90
61412;DHT22;47278;49.732;7.690;2022-11-14T02:42:33;2.50;99.90
61412;DHT22;47278;49.732;7.690;2022-11-14T02:44:59;2.50;99.90
61412;DHT22;47278;49.732;7.690;2022-11-14T02:47:24;2.50;99.90
61412;DHT22;47278;49.732;7.690;2022-11-14T02:49:50;2.50;99.90
61412;DHT22;47278;49.732;7.690;2022-11-14T02:52:16;2.50;99.90
61412;DHT22;47278;49.732;7.690;2022-11-14T02:54:41;2.50;99.90
61412;DHT22;47278;49.732;7.690;2022-11-14T02:57:07;2.40;99.90
61412;DHT22;47278;49.732;7.690;2022-11-14T02:59:32;2.50;99.90
61412;DHT22;47278;49.732;7.690;2022-11-14T03:01:58;2.50;99.90
61412;DHT22;47278;49.732;7.690;2022-11-14T03:04:23;2.50;99.90
61412;DHT22;47278;49.732;7.690;2022-11-14T03:06:49;2.50;99.90
61412;DHT22;47278;49.732;7.690;2022-11-14T03:09:14;2.50;99.90
61412;DHT22;47278;49.732;7.690;2022-11-14T03:11:40;2.60;99.90
61412;DHT22;47278;49.732;7.690;2022-11-14T03:14:06;2.60;99.90
61412;DHT22;47278;49.732;7.690;2022-11-14T03:16:31;2.60;99.90
61412;DHT22;47278;49.732;7.690;2022-11-14T03:18:57;2.60;99.90
61412;DHT22;47278;49.732;7.690;2022-11-14T03:21:22;2.60;99.90
61412;DHT22;47278;49.732;7.690;2022-11-14T03:23:48;2.70;99.90
61412;DHT22;47278;49.732;7.690;2022-11-14T03:26:13;2.80;99.90
61412;DHT22;47278;49.732;7.690;2022-11-14T03:28:39;2.80;99.90
61412;DHT22;47278;49.732;7.690;2022-11-14T03:31:05;2.80;99.90
61412;DHT22;47278;49.732;7.690;2022-11-14T03:33:31;2.90;99.90
61412;DHT22;47278;49.732;7.690;2022-11-14T03:35:57;2.90;99.90
61412;DHT22;47278;49.732;7.690;2022-11-14T03:38:22;2.90;99.90
61412;DHT22;47278;49.732;7.690;2022-11-14T03:40:51;2.90;99.90
61412;DHT22;47278;49.732;7.690;2022-11-14T03:43:17;2.90;99.90
61412;DHT22;47278;49.732;7.690;2022-11-14T03:45:43;2.90;99.90
61412;DHT22;47278;49.732;7.690;2022-11-14T03:48:09;3.00;99.90
61412;DHT22;47278;49.732;7.690;2022-11-14T03:50:35;3.00;99.90
61412;DHT22;47278;49.732;7.690;2022-11-14T03:53:01;3.00;99.90
61412;DHT22;47278;49.732;7.690;2022-11-14T03:55:26;3.00;99.90
61412;DHT22;47278;49.732;7.690;2022-11-14T03:57:52;3.10;99.90
61412;DHT22;47278;49.732;7.690;2022-11-14T04:00:17;3.10;99.90
61412;DHT22;47278;49.732;7.690;2022-11-14T04:02:43;3.10;99.90
61412;DHT22;47278;49.732;7.690;2022-11-14T04:05:09;3.00;99.90
61412;DHT22;47278;49.732;7.690;2022-11-14T04:07:34;3.00;99.90
61412;DHT22;47278;49.732;7.690;2022-11-14T04:10:00;3.10;99.90
61412;DHT22;47278;49.732;7.690;2022-11-14T04:12:26;3.10;99.90
61412;DHT22;47278;49.732;7.690;2022-11-14T04:14:51;3.10;99.90
61412;DHT22;47278;49.732;7.690;2022-11-14T04:17:17;3.20;99.90
61412;DHT22;47278;49.732;7.690;2022-11-14T04:19:42;3.20;99.90
61412;DHT22;47278;49.732;7.690;2022-11-14T04:22:08;3.20;99.90
61412;DHT22;47278;49.732;7.690;2022-11-14T04:24:33;3.30;99.90
61412;DHT22;47278;49.732;7.690;2022-11-14T04:26:59;3.30;99.90
61412;DHT22;47278;49.732;7.690;2022-11-14T04:29:24;3.30;99.90
61412;DHT22;47278;49.732;7.690;2022-11-14T04:31:50;3.40;99.90
61412;DHT22;47278;49.732;7.690;2022-11-14T04:34:16;3.40;99.90
61412;DHT22;47278;49.732;7.690;2022-11-14T04:36:42;3.30;99.90
61412;DHT22;47278;49.732;7.690;2022-11-14T04:39:07;3.30;99.90
61412;DHT22;47278;49.732;7.690;2022-11-14T04:41:33;3.30;99.90
61412;DHT22;47278;49.732;7.690;2022-11-14T04:43:58;3.30;99.90
61412;DHT22;47278;49.732;7.690;2022-11-14T04:46:24;3.40;99.90
61412;DHT22;47278;49.732;7.690;2022-11-14T04:48:49;3.50;99.90
61412;DHT22;47278;49.732;7.690;2022-11-14T04:51:15;3.50;99.90
61412;DHT22;47278;49.732;7.690;2022-11-14T04:53:40;3.50;99.90
61412;DHT22;47278;49.732;7.690;2022-11-14T04:56:06;3.60;99.90
61412;DHT22;47278;49.732;7.690;2022-11-14T04:58:31;3.60;99.90
61412;DHT22;47278;49.732;7.690;2022-11-14T05:00:57;3.50;99.90
61412;DHT22;47278;49.732;7.690;2022-11-14T05:03:23;3.60;99.90
61412;DHT22;47278;49.732;7.690;2022-11-14T05:05:48;3.70;99.90
61412;DHT22;47278;49.732;7.690;2022-11-14T05:08:14;3.60;99.90
61412;DHT22;47278;49.732;7.690;2022-11-14T05:10:43;3.60;99.90
61412;DHT22;47278;49.732;7.690;2022-11-14T05:13:09;3.70;99.90
61412;DHT22;47278;49.732;7.690;2022-11-14T05:15:35;3.70;99.90
61412;DHT22;47278;49.732;7.690;2022-11-14T05:18:00;3.80;99.90
61412;DHT22;47278;49.732;7.690;2022-11-14T05:20:26;3.70;99.90
61412;DHT22;47278;49.732;7.690;2022-11-14T05:22:52;3.70;99.90
61412;DHT22;47278;49.732;7.690;2022-11-14T05:25:18;3.60;99.90
61412;DHT22;47278;49.732;7.690;2022-11-14T05:27:44;3.70;99.90
61412;DHT22;47278;49.732;7.690;2022-11-14T05:30:10;3.70;99.90
61412;DHT22;47278;49.732;7.690;2022-11-14T05:32:35;3.80;99.90
61412;DHT22;47278;49.732;7.690;2022-11-14T05:35:01;3.70;99.90
61412;DHT22;47278;49.732;7.690;2022-11-14T05:37:26;3.80;99.90
61412;DHT22;47278;49.732;7.690;2022-11-14T05:39:52;3.80;99.90
61412;DHT22;47278;49.732;7.690;2022-11-14T05:42:17;3.80;99.90
61412;DHT22;47278;49.732;7.690;2022-11-14T05:44:43;3.80;99.90
61412;DHT22;47278;49.732;7.690;2022-11-14T05:47:08;3.80;99.90
61412;DHT22;47278;49.732;7.690;2022-11-14T05:49:34;3.80;99.90
61412;DHT22;47278;49.732;7.690;2022-11-14T05:51:59;3.90;99.90
61412;DHT22;47278;49.732;7.690;2022-11-14T05:54:25;3.90;99.90
61412;DHT22;47278;49.732;7.690;2022-11-14T05:56:51;1.20;99.90
61412;DHT22;47278;49.732;7.690;2022-11-14T05:59:16;4.00;99.90
61412;DHT22;47278;49.732;7.690;2022-11-14T06:01:42;4.00;99.90
61412;DHT22;47278;49.732;7.690;2022-11-14T06:04:08;4.00;99.90
61412;DHT22;47278;49.732;7.690;2022-11-14T06:06:33;4.00;99.90
61412;DHT22;47278;49.732;7.690;2022-11-14T06:08:59;4.00;99.90
61412;DHT22;47278;49.732;7.690;2022-11-14T06:11:24;4.00;99.90
61412;DHT22;47278;49.732;7.690;2022-11-14T06:13:50;4.00;99.90
61412;DHT22;47278;49.732;7.690;2022-11-14T06:16:16;4.00;99.90
61412;DHT22;47278;49.732;7.690;2022-11-14T06:18:42;4.00;99.90
61412;DHT22;47278;49.732;7.690;2022-11-14T06:21:15;4.00;99.90
61412;DHT22;47278;49.732;7.690;2022-11-14T06:23:41;4.00;99.90
61412;DHT22;47278;49.732;7.690;2022-11-14T06:26:09;4.10;99.90
61412;DHT22;47278;49.732;7.690;2022-11-14T06:28:35;3.50;99.90
61412;DHT22;47278;49.732;7.690;2022-11-14T06:31:02;4.10;99.90
61412;DHT22;47278;49.732;7.690;2022-11-14T06:33:28;4.20;99.90
61412;DHT22;47278;49.732;7.690;2022-11-14T06:35:57;4.20;99.90
61412;DHT22;47278;49.732;7.690;2022-11-14T06:38:23;4.20;99.90
61412;DHT22;47278;49.732;7.690;2022-11-14T06:40:49;4.20;99.90
61412;DHT22;47278;49.732;7.690;2022-11-14T06:43:14;4.10;99.90
61412;DHT22;47278;49.732;7.690;2022-11-14T06:45:40;4.20;99.90
61412;DHT22;47278;49.732;7.690;2022-11-14T06:48:06;4.30;99.90
61412;DHT22;47278;49.732;7.690;2022-11-14T06:50:31;4.30;99.90
61412;DHT22;47278;49.732;7.690;2022-11-14T06:52:57;4.40;99.90
61412;DHT22;47278;49.732;7.690;2022-11-14T06:55:23;4.40;99.90
61412;DHT22;47278;49.732;7.690;2022-11-14T06:57:52;4.40;99.90
61412;DHT22;47278;49.732;7.690;2022-11-14T07:00:19;4.50;99.90
61412;DHT22;47278;49.732;7.690;2022-11-14T07:02:45;4.50;99.90
61412;DHT22;47278;49.732;7.690;2022-11-14T07:05:10;4.50;99.90
61412;DHT22;47278;49.732;7.690;2022-11-14T07:07:36;4.50;99.90
61412;DHT22;47278;49.732;7.690;2022-11-14T07:10:02;4.60;99.90
61412;DHT22;47278;49.732;7.690;2022-11-14T07:12:27;4.70;99.90
61412;DHT22;47278;49.732;7.690;2022-11-14T07:14:53;4.70;99.90
61412;DHT22;47278;49.732;7.690;2022-11-14T07:17:19;4.80;99.90
61412;DHT22;47278;49.732;7.690;2022-11-14T07:19:45;4.70;99.90
61412;DHT22;47278;49.732;7.690;2022-11-14T07:22:10;4.80;99.90
61412;DHT22;47278;49.732;7.690;2022-11-14T07:24:36;4.80;99.90
61412;DHT22;47278;49.732;7.690;2022-11-14T07:27:01;4.90;99.90
61412;DHT22;47278;49.732;7.690;2022-11-14T07:29:27;4.90;99.90
61412;DHT22;47278;49.732;7.690;2022-11-14T07:31:52;5.00;99.90
61412;DHT22;47278;49.732;7.690;2022-11-14T07:34:18;5.00;99.90
61412;DHT22;47278;49.732;7.690;2022-11-14T07:36:43;5.10;99.90
61412;DHT22;47278;49.732;7.690;2022-11-14T07:39:09;5.10;99.90
61412;DHT22;47278;49.732;7.690;2022-11-14T07:41:35;5.10;99.90
61412;DHT22;47278;49.732;7.690;2022-11-14T07:44:00;5.20;99.90
61412;DHT22;47278;49.732;7.690;2022-11-14T07:46:26;5.10;99.90
61412;DHT22;47278;49.732;7.690;2022-11-14T07:48:51;5.20;99.90
61412;DHT22;47278;49.732;7.690;2022-11-14T07:51:18;5.20;99.90
61412;DHT22;47278;49.732;7.690;2022-11-14T07:53:44;5.40;99.90
61412;DHT22;47278;49.732;7.690;2022-11-14T07:56:10;5.40;99.90
61412;DHT22;47278;49.732;7.690;2022-11-14T07:58:36;5.50;99.90
61412;DHT22;47278;49.732;7.690;2022-11-14T08:01:03;5.50;99.90
61412;DHT22;47278;49.732;7.690;2022-11-14T08:03:28;5.60;99.90
61412;DHT22;47278;49.732;7.690;2022-11-14T08:08:26;5.60;99.90
61412;DHT22;47278;49.732;7.690;2022-11-14T08:10:54;5.60;99.90
61412;DHT22;47278;49.732;7.690;2022-11-14T08:13:20;5.70;99.90
61412;DHT22;47278;49.732;7.690;2022-11-14T08:15:45;5.70;99.90
61412;DHT22;47278;49.732;7.690;2022-11-14T08:18:11;5.70;99.90
61412;DHT22;47278;49.732;7.690;2022-11-14T08:20:36;5.80;99.90
61412;DHT22;47278;49.732;7.690;2022-11-14T08:23:05;5.80;99.90
61412;DHT22;47278;49.732;7.690;2022-11-14T08:25:31;5.90;99.90
61412;DHT22;47278;49.732;7.690;2022-11-14T08:27:57;5.90;99.90
61412;DHT22;47278;49.732;7.690;2022-11-14T08:30:23;6.00;99.90
61412;DHT22;47278;49.732;7.690;2022-11-14T08:32:48;6.00;99.90
61412;DHT22;47278;49.732;7.690;2022-11-14T08:35:14;6.10;99.90
61412;DHT22;47278;49.732;7.690;2022-11-14T08:37:39;6.10;99.90
61412;DHT22;47278;49.732;7.690;2022-11-14T08:40:05;8.10;99.90
61412;DHT22;47278;49.732;7.690;2022-11-14T08:42:31;6.10;99.90
61412;DHT22;47278;49.732;7.690;2022-11-14T08:44:56;6.20;99.90
61412;DHT22;47278;49.732;7.690;2022-11-14T08:47:22;6.20;99.90
61412;DHT22;47278;49.732;7.690;2022-11-14T08:49:47;6.20;99.90
61412;DHT22;47278;49.732;7.690;2022-11-14T08:52:13;6.30;99.90
61412;DHT22;47278;49.732;7.690;2022-11-14T08:54:38;6.30;99.90
61412;DHT22;47278;49.732;7.690;2022-11-14T08:57:04;6.30;99.90
61412;DHT22;47278;49.732;7.690;2022-11-14T08:59:30;6.30;99.90
61412;DHT22;47278;49.732;7.690;2022-11-14T09:01:56;6.40;99.90
61412;DHT22;47278;49.732;7.690;2022-11-14T09:04:22;6.50;99.90
61412;DHT22;47278;49.732;7.690;2022-11-14T09:06:47;6.50;99.90
61412;DHT22;47278;49.732;7.690;2022-11-14T09:09:13;6.60;99.90
61412;DHT22;47278;49.732;7.690;2022-11-14T09:11:39;6.60;99.90
61412;DHT22;47278;49.732;7.690;2022-11-14T09:14:04;6.70;99.90
61412;DHT22;47278;49.732;7.690;2022-11-14T09:16:30;6.70;99.90
61412;DHT22;47278;49.732;7.690;2022-11-14T09:18:55;6.80;99.90
61412;DHT22;47278;49.732;7.690;2022-11-14T09:21:21;6.90;99.90
61412;DHT22;47278;49.732;7.690;2022-11-14T09:23:47;6.90;99.90
61412;DHT22;47278;49.732;7.690;2022-11-14T09:26:12;6.90;99.90
61412;DHT22;47278;49.732;7.690;2022-11-14T09:28:38;6.90;99.90
61412;DHT22;47278;49.732;7.690;2022-11-14T09:31:05;7.00;99.90
61412;DHT22;47278;49.732;7.690;2022-11-14T09:33:31;7.00;99.90
61412;DHT22;47278;49.732;7.690;2022-11-14T09:36:00;6.30;99.90
61412;DHT22;47278;49.732;7.690;2022-11-14T09:38:26;7.10;99.90
61412;DHT22;47278;49.732;7.690;2022-11-14T09:41:01;7.10;99.90
61412;DHT22;47278;49.732;7.690;2022-11-14T09:46:16;7.20;99.90
61412;DHT22;47278;49.732;7.690;2022-11-14T09:48:43;7.30;99.90
61412;DHT22;47278;49.732;7.690;2022-11-14T09:51:10;7.30;99.90
61412;DHT22;47278;49.732;7.690;2022-11-14T09:53:41;7.40;99.90
61412;DHT22;47278;49.732;7.690;2022-11-14T09:56:14;7.20;99.90
61412;DHT22;47278;49.732;7.690;2022-11-14T09:58:43;7.40;99.90
61412;DHT22;47278;49.732;7.690;2022-11-14T10:01:16;7.50;99.90
61412;DHT22;47278;49.732;7.690;2022-11-14T10:04:09;7.60;99.90
61412;DHT22;47278;49.732;7.690;2022-11-14T10:06:34;7.50;99.90
61412;DHT22;47278;49.732;7.690;2022-11-14T10:14:18;7.50;99.90
61412;DHT22;47278;49.732;7.690;2022-11-14T10:32:21;7.80;99.90
61412;DHT22;47278;49.732;7.690;2022-11-14T10:34:53;7.80;99.90
61412;DHT22;47278;49.732;7.690;2022-11-14T10:37:28;7.80;99.90
61412;DHT22;47278;49.732;7.690;2022-11-14T10:43:01;7.80;99.90
61412;DHT22;47278;49.732;7.690;2022-11-14T10:45:34;7.80;99.90
61412;DHT22;47278;49.732;7.690;2022-11-14T10:50:41;7.80;99.90
61412;DHT22;47278;49.732;7.690;2022-11-14T10:53:18;7.80;99.90
61412;DHT22;47278;49.732;7.690;2022-11-14T10:55:48;7.70;99.90
61412;DHT22;47278;49.732;7.690;2022-11-14T10:58:13;7.70;99.90
61412;DHT22;47278;49.732;7.690;2022-11-14T11:00:39;7.70;99.90
61412;DHT22;47278;49.732;7.690;2022-11-14T11:03:04;7.80;99.90
61412;DHT22;47278;49.732;7.690;2022-11-14T11:05:31;7.90;99.90
61412;DHT22;47278;49.732;7.690;2022-11-14T11:08:08;7.90;99.90
61412;DHT22;47278;49.732;7.690;2022-11-14T11:10:54;7.80;99.90
61412;DHT22;47278;49.732;7.690;2022-11-14T11:14:02;7.80;99.90
61412;DHT22;47278;49.732;7.690;2022-11-14T11:16:27;7.70;99.90
61412;DHT22;47278;49.732;7.690;2022-11-14T11:18:53;7.60;99.90
61412;DHT22;47278;49.732;7.690;2022-11-14T11:21:21;7.70;99.90
61412;DHT22;47278;49.732;7.690;2022-11-14T11:26:20;7.70;99.90
61412;DHT22;47278;49.732;7.690;2022-11-14T11:28:59;7.70;99.90
61412;DHT22;47278;49.732;7.690;2022-11-14T11:31:25;7.80;99.90
61412;DHT22;47278;49.732;7.690;2022-11-14T11:33:50;7.80;99.90
61412;DHT22;47278;49.732;7.690;2022-11-14T11:36:17;7.80;99.90
61412;DHT22;47278;49.732;7.690;2022-11-14T11:38:43;7.80;99.90
61412;DHT22;47278;49.732;7.690;2022-11-14T11:41:29;8.00;99.90
61412;DHT22;47278;49.732;7.690;2022-11-14T11:43:56;8.10;99.90
61412;DHT22;47278;49.732;7.690;2022-11-14T11:46:25;8.20;99.90
61412;DHT22;47278;49.732;7.690;2022-11-14T11:48:53;8.30;99.90
61412;DHT22;47278;49.732;7.690;2022-11-14T11:51:21;8.40;99.90
61412;DHT22;47278;49.732;7.690;2022-11-14T11:53:59;8.40;99.90
61412;DHT22;47278;49.732;7.690;2022-11-14T11:56:29;8.40;99.90
61412;DHT22;47278;49.732;7.690;2022-11-14T11:58:57;8.40;99.90
61412;DHT22;47278;49.732;7.690;2022-11-14T12:01:25;8.50;99.90
61412;DHT22;47278;49.732;7.690;2022-11-14T12:03:51;8.50;99.90
61412;DHT22;47278;49.732;7.690;2022-11-14T12:06:23;8.70;99.90
61412;DHT22;47278;49.732;7.690;2022-11-14T12:11:36;8.70;99.90
61412;DHT22;47278;49.732;7.690;2022-11-14T12:20:01;8.70;99.90
61412;DHT22;47278;49.732;7.690;2022-11-14T12:25:06;8.70;99.90
61412;DHT22;47278;49.732;7.690;2022-11-14T12:32:36;8.80;99.90
61412;DHT22;47278;49.732;7.690;2022-11-14T12:35:04;8.90;99.90
61412;DHT22;47278;49.732;7.690;2022-11-14T12:37:32;8.90;99.90
61412;DHT22;47278;49.732;7.690;2022-11-14T12:39:59;8.90;99.90
61412;DHT22;47278;49.732;7.690;2022-11-14T12:42:26;8.90;99.90
61412;DHT22;47278;49.732;7.690;2022-11-14T12:44:51;8.80;99.90
61412;DHT22;47278;49.732;7.690;2022-11-14T12:47:21;8.80;99.90
61412;DHT22;47278;49.732;7.690;2022-11-14T12:54:57;9.10;99.90
61412;DHT22;47278;49.732;7.690;2022-11-14T12:57:28;9.10;99.90
61412;DHT22;47278;49.732;7.690;2022-11-14T13:00:14;9.10;99.90
61412;DHT22;47278;49.732;7.690;2022-11-14T13:07:44;9.20;99.90
61412;DHT22;47278;49.732;7.690;2022-11-14T13:10:14;9.10;99.90
61412;DHT22;47278;49.732;7.690;2022-11-14T13:12:56;9.00;99.90
61412;DHT22;47278;49.732;7.690;2022-11-14T13:15:47;9.00;99.90
61412;DHT22;47278;49.732;7.690;2022-11-14T13:18:31;9.00;99.90
61412;DHT22;47278;49.732;7.690;2022-11-14T13:21:23;9.00;99.90
61412;DHT22;47278;49.732;7.690;2022-11-14T13:24:07;10.10;99.90
61412;DHT22;47278;49.732;7.690;2022-11-14T13:26:34;8.90;99.90
61412;DHT22;47278;49.732;7.690;2022-11-14T13:29:00;8.90;99.90
61412;DHT22;47278;49.732;7.690;2022-11-14T13:34:00;8.90;99.90
61412;DHT22;47278;49.732;7.690;2022-11-14T13:44:37;8.90;99.90
61412;DHT22;47278;49.732;7.690;2022-11-14T13:47:28;9.00;99.90
61412;DHT22;47278;49.732;7.690;2022-11-14T13:52:27;9.00;99.90
61412;DHT22;47278;49.732;7.690;2022-11-14T13:54:53;9.00;99.90
61412;DHT22;47278;49.732;7.690;2022-11-14T13:57:38;9.00;99.90
61412;DHT22;47278;49.732;7.690;2022-11-14T14:17:43;8.80;99.90
61412;DHT22;47278;49.732;7.690;2022-11-14T14:30:15;8.80;99.90
61412;DHT22;47278;49.732;7.690;2022-11-14T14:32:41;8.80;99.90
61412;DHT22;47278;49.732;7.690;2022-11-14T14:35:23;8.80;99.90
61412;DHT22;47278;49.732;7.690;2022-11-14T14:37:52;8.80;99.90
61412;DHT22;47278;49.732;7.690;2022-11-14T14:40:31;8.80;99.90
61412;DHT22;47278;49.732;7.690;2022-11-14T14:43:00;8.80;99.90
61412;DHT22;47278;49.732;7.690;2022-11-14T14:45:27;8.80;99.90
61412;DHT22;47278;49.732;7.690;2022-11-14T14:48:03;8.80;99.90
61412;DHT22;47278;49.732;7.690;2022-11-14T14:50:32;8.80;99.90
61412;DHT22;47278;49.732;7.690;2022-11-14T14:53:00;8.80;99.90
61412;DHT22;47278;49.732;7.690;2022-11-14T14:55:27;8.80;99.90
61412;DHT22;47278;49.732;7.690;2022-11-14T14:57:53;8.80;99.90
61412;DHT22;47278;49.732;7.690;2022-11-14T15:00:20;8.80;99.90
61412;DHT22;47278;49.732;7.690;2022-11-14T15:02:46;8.80;99.90
61412;DHT22;47278;49.732;7.690;2022-11-14T15:05:23;8.70;99.90
61412;DHT22;47278;49.732;7.690;2022-11-14T15:07:49;8.70;99.90
61412;DHT22;47278;49.732;7.690;2022-11-14T15:10:24;8.70;99.90
61412;DHT22;47278;49.732;7.690;2022-11-14T15:12:51;8.60;99.90
61412;DHT22;47278;49.732;7.690;2022-11-14T15:15:18;8.70;99.90
61412;DHT22;47278;49.732;7.690;2022-11-14T15:17:43;8.60;99.90
61412;DHT22;47278;49.732;7.690;2022-11-14T15:20:22;8.60;99.90
61412;DHT22;47278;49.732;7.690;2022-11-14T15:23:15;8.60;99.90
61412;DHT22;47278;49.732;7.690;2022-11-14T15:25:42;8.60;99.90
61412;DHT22;47278;49.732;7.690;2022-11-14T15:28:41;8.60;99.90
61412;DHT22;47278;49.732;7.690;2022-11-14T15:31:00;8.70;99.90
61412;DHT22;47278;49.732;7.690;2022-11-14T15:33:27;8.70;99.90
61412;DHT22;47278;49.732;7.690;2022-11-14T15:36:12;8.70;99.90
61412;DHT22;47278;49.732;7.690;2022-11-14T15:38:38;8.70;99.90
61412;DHT22;47278;49.732;7.690;2022-11-14T15:41:15;8.50;99.90
61412;DHT22;47278;49.732;7.690;2022-11-14T15:49:15;8.70;99.90
61412;DHT22;47278;49.732;7.690;2022-11-14T15:51:45;8.70;99.90
61412;DHT22;47278;49.732;7.690;2022-11-14T15:56:49;8.70;99.90
61412;DHT22;47278;49.732;7.690;2022-11-14T15:59:14;8.60;99.90
61412;DHT22;47278;49.732;7.690;2022-11-14T16:01:40;10.80;99.90
61412;DHT22;47278;49.732;7.690;2022-11-14T16:04:07;8.70;99.90
61412;DHT22;47278;49.732;7.690;2022-11-14T16:06:34;8.70;99.90
61412;DHT22;47278;49.732;7.690;2022-11-14T16:09:00;8.60;99.90
61412;DHT22;47278;49.732;7.690;2022-11-14T16:11:25;8.70;99.90
61412;DHT22;47278;49.732;7.690;2022-11-14T16:13:51;8.60;99.90
61412;DHT22;47278;49.732;7.690;2022-11-14T16:16:16;8.60;99.90
61412;DHT22;47278;49.732;7.690;2022-11-14T16:18:42;8.60;99.90
61412;DHT22;47278;49.732;7.690;2022-11-14T16:21:11;8.60;99.90
61412;DHT22;47278;49.732;7.690;2022-11-14T16:23:38;8.60;99.90
61412;DHT22;47278;49.732;7.690;2022-11-14T16:26:03;8.60;99.90
61412;DHT22;47278;49.732;7.690;2022-11-14T16:28:29;8.60;99.90
61412;DHT22;47278;49.732;7.690;2022-11-14T16:30:54;8.60;99.90
61412;DHT22;47278;49.732;7.690;2022-11-14T16:33:20;8.60;99.90
61412;DHT22;47278;49.732;7.690;2022-11-14T16:35:45;8.60;99.90
61412;DHT22;47278;49.732;7.690;2022-11-14T16:38:12;8.60;99.90
61412;DHT22;47278;49.732;7.690;2022-11-14T16:40:38;8.60;99.90
61412;DHT22;47278;49.732;7.690;2022-11-14T16:43:08;8.60;99.90
61412;DHT22;47278;49.732;7.690;2022-11-14T16:45:38;8.60;99.90
61412;DHT22;47278;49.732;7.690;2022-11-14T16:48:04;8.60;99.90
61412;DHT22;47278;49.732;7.690;2022-11-14T16:50:29;8.60;99.90
61412;DHT22;47278;49.732;7.690;2022-11-14T16:52:55;8.70;99.90
61412;DHT22;47278;49.732;7.690;2022-11-14T16:55:21;8.70;99.90
61412;DHT22;47278;49.732;7.690;2022-11-14T16:57:47;8.70;99.90
61412;DHT22;47278;49.732;7.690;2022-11-14T17:00:13;8.70;99.90
61412;DHT22;47278;49.732;7.690;2022-11-14T17:02:39;8.60;99.90
61412;DHT22;47278;49.732;7.690;2022-11-14T17:05:05;8.70;99.90
61412;DHT22;47278;49.732;7.690;2022-11-14T17:07:30;8.70;99.90
61412;DHT22;47278;49.732;7.690;2022-11-14T17:10:00;8.60;99.90
61412;DHT22;47278;49.732;7.690;2022-11-14T17:12:26;8.60;99.90
61412;DHT22;47278;49.732;7.690;2022-11-14T17:14:51;8.50;99.90
61412;DHT22;47278;49.732;7.690;2022-11-14T17:17:19;8.40;99.90
61412;DHT22;47278;49.732;7.690;2022-11-14T17:19:44;8.40;99.90
61412;DHT22;47278;49.732;7.690;2022-11-14T17:22:10;8.40;99.90
61412;DHT22;47278;49.732;7.690;2022-11-14T17:24:37;8.30;99.90
61412;DHT22;47278;49.732;7.690;2022-11-14T17:27:02;6.30;99.90
61412;DHT22;47278;49.732;7.690;2022-11-14T17:29:28;8.30;99.90
61412;DHT22;47278;49.732;7.690;2022-11-14T17:31:54;8.30;99.90
61412;DHT22;47278;49.732;7.690;2022-11-14T17:34:19;8.40;99.90
61412;DHT22;47278;49.732;7.690;2022-11-14T17:36:45;8.30;99.90
61412;DHT22;47278;49.732;7.690;2022-11-14T17:39:10;8.30;99.90